createdAt,value
2019-03-21T00:02:22.969Z,66.07
2019-03-21T00:04:50.433Z,66.15
2019-03-21T00:07:17.775Z,65.90
2019-03-21T00:09:45.889Z,66.51
2019-03-21T00:12:13.217Z,66.30
2019-03-21T00:14:40.554Z,65.88
2019-03-21T00:17:07.602Z,66.17
2019-03-21T00:19:34.651Z,66.21
2019-03-21T00:22:01.681Z,66.27
2019-03-21T00:24:28.807Z,66.56
2019-03-21T00:26:55.842Z,66.75
2019-03-21T00:29:23.269Z,66.71
2019-03-21T00:31:50.305Z,66.55
2019-03-21T00:34:17.656Z,66.34
2019-03-21T00:36:45.024Z,66.24
2019-03-21T00:39:12.078Z,66.04
2019-03-21T00:41:39.414Z,65.61
2019-03-21T00:44:17.597Z,65.38
2019-03-21T00:46:35.862Z,65.46
2019-03-21T00:49:02.895Z,65.46
2019-03-21T00:51:30.183Z,65.36
2019-03-21T00:53:57.539Z,65.06
2019-03-21T00:56:24.603Z,65.50
2019-03-21T00:58:52.600Z,65.98
2019-03-21T01:01:20.023Z,65.94
2019-03-21T01:03:47.030Z,66.12
2019-03-21T01:06:14.137Z,66.44
2019-03-21T01:08:41.445Z,67.24
2019-03-21T01:11:08.845Z,67.61
2019-03-21T01:13:36.152Z,68.07
2019-03-21T01:16:03.209Z,68.48
2019-03-21T01:18:30.248Z,68.81
2019-03-21T01:20:57.643Z,68.71
2019-03-21T01:23:24.713Z,68.39
2019-03-21T01:25:51.762Z,68.14
2019-03-21T01:28:19.166Z,67.81
2019-03-21T01:30:46.515Z,67.57
2019-03-21T01:33:13.885Z,67.42
2019-03-21T01:35:41.230Z,67.06
2019-03-21T01:38:08.261Z,66.48
2019-03-21T01:40:35.835Z,66.22
2019-03-21T01:43:03.187Z,65.94
2019-03-21T01:45:40.505Z,66.29
2019-03-21T01:48:07.552Z,66.54
2019-03-21T01:50:34.592Z,66.98
2019-03-21T01:53:01.650Z,67.10
2019-03-21T01:55:28.699Z,67.07
2019-03-21T01:57:56.022Z,67.08
2019-03-21T02:00:23.380Z,67.13
2019-03-21T02:02:50.503Z,67.09
2019-03-21T02:05:17.621Z,66.89
2019-03-21T02:07:45.055Z,66.96
2019-03-21T02:10:12.392Z,67.14
2019-03-21T02:12:39.696Z,67.52
2019-03-21T02:15:07.013Z,67.72
2019-03-21T02:17:34.364Z,67.84
2019-03-21T02:20:01.709Z,68.15
2019-03-21T02:22:29.186Z,67.71
2019-03-21T02:24:56.228Z,67.43
2019-03-21T02:27:23.566Z,66.77
2019-03-21T02:29:50.603Z,66.43
2019-03-21T02:32:17.660Z,66.37
2019-03-21T02:34:45.020Z,66.34
2019-03-21T02:37:12.078Z,66.42
2019-03-21T02:39:39.424Z,66.79
2019-03-21T02:42:06.487Z,66.80
2019-03-21T02:44:33.582Z,66.88
2019-03-21T02:47:00.655Z,67.29
2019-03-21T02:49:27.688Z,67.55
2019-03-21T02:51:54.751Z,68.00
2019-03-21T02:54:21.807Z,68.34
2019-03-21T02:56:49.199Z,68.49
2019-03-21T02:59:16.232Z,68.75
2019-03-21T03:01:43.286Z,68.37
2019-03-21T03:04:10.402Z,68.24
2019-03-21T03:06:37.446Z,68.42
2019-03-21T03:09:04.817Z,68.56
2019-03-21T03:11:32.029Z,68.31
2019-03-21T03:13:59.429Z,68.10
2019-03-21T03:16:26.713Z,67.87
2019-03-21T03:18:54.033Z,67.70
2019-03-21T03:21:21.079Z,67.70
2019-03-21T03:23:48.133Z,67.70
2019-03-21T03:26:15.172Z,67.88
2019-03-21T03:28:42.481Z,67.92
2019-03-21T03:31:09.522Z,68.09
2019-03-21T03:33:36.574Z,68.54
2019-03-21T03:36:04.089Z,68.98
2019-03-21T03:38:31.152Z,69.24
2019-03-21T03:40:58.196Z,69.60
2019-03-21T03:43:25.539Z,69.62
2019-03-21T03:45:52.588Z,69.77
2019-03-21T03:48:20.815Z,69.91
2019-03-21T03:50:48.066Z,70.50
2019-03-21T03:53:15.471Z,70.47
2019-03-21T03:55:42.824Z,70.53
2019-03-21T03:58:10.188Z,70.62
2019-03-21T04:00:37.541Z,70.65
2019-03-21T04:03:05.812Z,70.61
2019-03-21T04:05:33.170Z,70.56
2019-03-21T04:08:00.215Z,70.51
2019-03-21T04:10:27.338Z,70.69
2019-03-21T04:12:54.390Z,70.81
2019-03-21T04:15:21.767Z,71.06
2019-03-21T04:17:48.820Z,71.25
2019-03-21T04:20:16.111Z,71.33
2019-03-21T04:22:43.168Z,71.18
2019-03-21T04:25:10.473Z,71.32
2019-03-21T04:27:37.508Z,71.33
2019-03-21T04:30:04.899Z,71.46
2019-03-21T04:32:31.939Z,71.40
2019-03-21T04:34:59.273Z,71.31
2019-03-21T04:37:26.634Z,70.95
2019-03-21T04:39:53.684Z,70.91
2019-03-21T04:42:20.722Z,70.86
2019-03-21T04:44:48.085Z,71.30
2019-03-21T04:47:15.446Z,71.21
2019-03-21T04:49:42.790Z,71.46
2019-03-21T04:52:10.147Z,71.46
2019-03-21T04:54:37.253Z,71.58
2019-03-21T04:57:04.554Z,71.79
2019-03-21T04:59:31.602Z,72.00
2019-03-21T05:01:58.648Z,71.74
2019-03-21T05:04:25.715Z,71.59
2019-03-21T05:06:53.054Z,71.78
2019-03-21T05:11:59.743Z,72.04
2019-03-21T05:14:27.203Z,71.58
2019-03-21T05:16:54.244Z,71.18
2019-03-21T05:19:21.298Z,70.83
2019-03-21T05:21:48.650Z,70.81
2019-03-21T05:24:15.712Z,70.53
2019-03-21T05:26:42.890Z,70.04
2019-03-21T05:29:10.321Z,69.69
2019-03-21T05:31:37.369Z,69.34
2019-03-21T05:34:04.705Z,69.21
2019-03-21T05:36:33.015Z,69.16
2019-03-21T05:39:00.067Z,69.04
2019-03-21T05:41:27.107Z,67.63
2019-03-21T05:43:54.156Z,65.44
2019-03-21T05:46:26.439Z,62.86
2019-03-21T05:48:51.333Z,60.34
2019-03-21T05:51:18.371Z,59.05
2019-03-21T05:53:45.425Z,56.51
2019-03-21T05:56:12.464Z,54.25
2019-03-21T05:58:39.518Z,52.03
2019-03-21T06:01:06.550Z,51.80
2019-03-21T06:03:33.894Z,50.44
2019-03-21T06:06:00.944Z,50.04
2019-03-21T06:08:28.293Z,47.42
2019-03-21T06:10:55.344Z,46.53
2019-03-21T06:13:22.697Z,47.10
2019-03-21T06:15:50.052Z,45.17
2019-03-21T06:18:17.409Z,44.25
2019-03-21T06:20:44.470Z,44.72
2019-03-21T06:23:11.506Z,41.98
2019-03-21T06:25:38.815Z,42.17
2019-03-21T06:28:05.848Z,42.56
2019-03-21T06:30:32.900Z,42.39
2019-03-21T06:32:59.939Z,41.79
2019-03-21T06:35:27.358Z,42.38
2019-03-21T06:37:54.405Z,41.24
2019-03-21T06:40:21.457Z,39.65
2019-03-21T06:42:48.495Z,38.51
2019-03-21T06:45:15.544Z,38.79
2019-03-21T06:47:42.580Z,39.79
2019-03-21T06:50:09.950Z,39.76
2019-03-21T06:52:37.253Z,38.02
2019-03-21T06:55:04.670Z,37.29
2019-03-21T06:57:32.014Z,36.15
2019-03-21T06:59:59.375Z,36.58
2019-03-21T07:02:26.423Z,36.10
2019-03-21T07:04:53.773Z,35.83
2019-03-21T07:07:20.812Z,34.35
2019-03-21T07:09:47.851Z,34.61
2019-03-21T07:12:14.899Z,34.38
2019-03-21T07:14:42.294Z,33.18
2019-03-21T07:17:09.625Z,33.81
2019-03-21T07:19:37.887Z,33.38
2019-03-21T07:22:04.941Z,33.42
2019-03-21T07:24:31.982Z,32.87
2019-03-21T07:26:59.035Z,32.19
2019-03-21T07:29:26.402Z,33.13
2019-03-21T07:31:53.454Z,33.42
2019-03-21T07:34:20.508Z,32.25
2019-03-21T07:36:47.855Z,33.48
2019-03-21T07:39:15.212Z,31.99
2019-03-21T07:41:42.268Z,30.54
2019-03-21T07:44:09.308Z,31.16
2019-03-21T07:46:36.365Z,32.56
2019-03-21T07:49:03.476Z,32.47
2019-03-21T07:51:30.539Z,31.37
2019-03-21T07:53:57.577Z,31.33
2019-03-21T07:56:25.089Z,30.67
2019-03-21T07:58:52.162Z,31.71
2019-03-21T08:01:19.223Z,31.87
2019-03-21T08:03:46.512Z,30.31
2019-03-21T08:06:13.883Z,31.14
2019-03-21T08:08:41.225Z,30.91
2019-03-21T08:11:08.575Z,31.07
2019-03-21T08:13:35.620Z,31.68
2019-03-21T08:16:02.975Z,31.51
2019-03-21T08:18:30.333Z,32.41
2019-03-21T08:21:00.005Z,32.67
2019-03-21T08:23:26.476Z,32.29
2019-03-21T08:25:53.531Z,32.23
2019-03-21T08:28:20.577Z,30.90
2019-03-21T08:30:47.617Z,31.72
2019-03-21T08:33:14.672Z,31.77
2019-03-21T08:35:41.719Z,32.34
2019-03-21T08:38:08.772Z,29.74
2019-03-21T08:40:35.816Z,30.10
2019-03-21T08:43:03.174Z,31.85
2019-03-21T08:45:31.546Z,31.38
2019-03-21T08:47:58.919Z,31.15
2019-03-21T08:50:26.260Z,31.13
2019-03-21T08:52:53.319Z,33.04
2019-03-21T08:55:20.367Z,30.61
2019-03-21T08:57:47.424Z,31.45
2019-03-21T09:00:14.464Z,31.80
2019-03-21T09:02:41.523Z,31.93
2019-03-21T09:05:08.562Z,31.98
2019-03-21T09:07:35.917Z,31.98
2019-03-21T09:10:02.957Z,32.80
2019-03-21T09:12:30.506Z,31.97
2019-03-21T09:14:57.553Z,31.96
2019-03-21T09:17:24.603Z,30.61
2019-03-21T09:19:51.649Z,29.92
2019-03-21T09:22:19.007Z,29.81
2019-03-21T09:24:46.050Z,29.66
2019-03-21T09:27:13.101Z,28.88
2019-03-21T09:29:40.148Z,30.00
2019-03-21T09:32:07.233Z,29.36
2019-03-21T09:34:34.258Z,28.72
2019-03-21T09:37:03.887Z,27.80
2019-03-21T09:39:31.314Z,28.61
2019-03-21T09:41:58.355Z,28.60
2019-03-21T09:44:25.415Z,29.05
2019-03-21T09:46:52.451Z,30.11
2019-03-21T09:49:19.503Z,30.61
2019-03-21T09:51:46.790Z,29.65
2019-03-21T09:54:14.112Z,29.13
2019-03-21T09:56:41.477Z,31.48
2019-03-21T09:59:08.822Z,29.76
2019-03-21T10:01:35.864Z,28.45
2019-03-21T10:04:03.223Z,28.33
2019-03-21T10:06:30.258Z,27.72
2019-03-21T10:08:57.630Z,28.17
2019-03-21T10:11:24.982Z,27.70
2019-03-21T10:13:52.035Z,27.57
2019-03-21T10:16:19.147Z,27.66
2019-03-21T10:18:46.535Z,28.07
2019-03-21T10:21:13.579Z,27.30
2019-03-21T10:23:40.630Z,28.37
2019-03-21T10:26:07.677Z,27.82
2019-03-21T10:28:35.034Z,28.53
2019-03-21T10:31:02.074Z,28.27
2019-03-21T10:33:29.128Z,27.99
2019-03-21T10:35:56.172Z,26.99
2019-03-21T10:38:23.531Z,26.43
2019-03-21T10:40:50.577Z,28.37
2019-03-21T10:43:17.631Z,28.45
2019-03-21T10:45:44.998Z,27.61
2019-03-21T10:48:12.041Z,28.81
2019-03-21T10:50:39.082Z,26.78
2019-03-21T10:53:07.203Z,27.00
2019-03-21T10:55:34.246Z,26.73
2019-03-21T10:58:01.284Z,25.51
2019-03-21T11:00:28.342Z,25.12
2019-03-21T11:02:55.379Z,27.00
2019-03-21T11:05:23.354Z,25.33
2019-03-21T11:07:50.870Z,24.62
2019-03-21T11:10:17.924Z,24.30
2019-03-21T11:12:46.302Z,25.46
2019-03-21T11:15:13.358Z,25.12
2019-03-21T11:17:40.398Z,25.65
2019-03-21T11:20:07.452Z,26.14
2019-03-21T11:22:34.492Z,25.89
2019-03-21T11:25:01.847Z,26.13
2019-03-21T11:27:28.884Z,23.98
2019-03-21T11:29:55.938Z,25.17
2019-03-21T11:32:22.973Z,23.79
2019-03-21T11:34:50.040Z,23.83
2019-03-21T11:37:17.396Z,23.87
2019-03-21T11:39:44.750Z,22.86
2019-03-21T11:42:11.790Z,23.58
2019-03-21T11:44:38.850Z,22.65
2019-03-21T11:47:05.897Z,23.25
2019-03-21T11:49:32.997Z,22.52
2019-03-21T11:51:59.986Z,21.85
2019-03-21T11:54:27.342Z,21.08
2019-03-21T11:56:54.630Z,22.41
2019-03-21T11:59:21.688Z,22.22
2019-03-21T12:01:48.729Z,22.83
2019-03-21T12:04:15.783Z,20.95
2019-03-21T12:06:42.820Z,21.98
2019-03-21T12:09:09.859Z,23.20
2019-03-21T12:11:36.910Z,22.74
2019-03-21T12:14:04.240Z,22.73
2019-03-21T12:16:31.609Z,22.31
2019-03-21T12:18:58.646Z,23.47
2019-03-21T12:21:25.718Z,22.27
2019-03-21T12:23:52.759Z,22.61
2019-03-21T12:26:19.815Z,22.47
2019-03-21T12:28:46.861Z,22.07
2019-03-21T12:31:13.914Z,20.95
2019-03-21T12:33:40.960Z,20.68
2019-03-21T12:36:08.288Z,21.74
2019-03-21T12:38:35.394Z,20.96
2019-03-21T12:41:02.793Z,20.69
2019-03-21T12:43:30.094Z,20.76
2019-03-21T12:45:57.150Z,21.17
2019-03-21T12:48:24.548Z,22.31
2019-03-21T12:50:51.599Z,21.41
2019-03-21T12:53:18.645Z,21.97
2019-03-21T12:55:45.998Z,21.71
2019-03-21T12:58:13.035Z,21.18
2019-03-21T13:00:41.067Z,22.16
2019-03-21T13:03:08.102Z,21.93
2019-03-21T13:05:35.425Z,22.85
2019-03-21T13:08:02.464Z,22.44
2019-03-21T13:10:29.536Z,22.72
2019-03-21T13:12:56.578Z,22.61
2019-03-21T13:15:29.860Z,23.84
2019-03-21T13:17:52.654Z,23.37
2019-03-21T13:20:19.718Z,22.30
2019-03-21T13:22:52.768Z,23.24
2019-03-21T13:25:15.507Z,24.81
2019-03-21T13:27:42.551Z,25.17
2019-03-21T13:30:09.891Z,25.15
2019-03-21T13:32:36.935Z,25.85
2019-03-21T13:35:06.203Z,26.09
2019-03-21T13:37:32.727Z,27.39
2019-03-21T13:39:59.762Z,28.10
2019-03-21T13:42:27.079Z,28.70
2019-03-21T13:44:54.430Z,28.55
2019-03-21T13:47:21.787Z,28.58
2019-03-21T13:49:48.833Z,28.80
2019-03-21T13:52:16.210Z,27.86
2019-03-21T13:54:43.546Z,29.11
2019-03-21T13:57:10.898Z,29.05
2019-03-21T13:59:38.259Z,29.96
2019-03-21T14:02:05.321Z,30.90
2019-03-21T14:04:32.659Z,31.77
2019-03-21T14:07:00.014Z,31.52
2019-03-21T14:09:27.367Z,32.92
2019-03-21T14:11:54.422Z,32.98
2019-03-21T14:14:21.471Z,33.31
2019-03-21T14:16:50.878Z,33.99
2019-03-21T14:19:17.586Z,33.32
2019-03-21T14:21:45.607Z,33.14
2019-03-21T14:24:12.935Z,32.31
2019-03-21T14:26:40.241Z,33.49
2019-03-21T14:29:12.518Z,32.03
2019-03-21T14:31:36.327Z,33.11
2019-03-21T14:34:04.342Z,32.79
2019-03-21T14:36:31.407Z,31.63
2019-03-21T14:38:58.442Z,31.43
2019-03-21T14:41:25.751Z,31.70
2019-03-21T14:43:52.803Z,30.69
2019-03-21T14:46:20.169Z,31.14
2019-03-21T14:48:47.508Z,31.33
2019-03-21T14:51:14.794Z,30.88
2019-03-21T14:53:42.921Z,31.33
2019-03-21T14:56:09.971Z,30.89
2019-03-21T14:58:37.339Z,30.92
2019-03-21T15:01:04.455Z,32.53
2019-03-21T15:03:31.863Z,29.65
2019-03-21T15:05:58.905Z,32.06
2019-03-21T15:08:26.252Z,30.46
2019-03-21T15:10:53.282Z,29.87
2019-03-21T15:13:20.359Z,28.64
2019-03-21T15:15:47.379Z,30.52
2019-03-21T15:18:14.430Z,29.32
2019-03-21T15:20:41.466Z,31.10
2019-03-21T15:23:08.523Z,29.18
2019-03-21T15:25:35.983Z,28.73
2019-03-21T15:28:03.116Z,29.70
2019-03-21T15:30:31.372Z,29.30
2019-03-21T15:32:58.496Z,28.94
2019-03-21T15:35:25.823Z,29.81
2019-03-21T15:37:53.187Z,30.31
2019-03-21T15:40:20.291Z,28.92
2019-03-21T15:42:47.703Z,29.85
2019-03-21T15:45:22.194Z,28.84
2019-03-21T15:47:43.565Z,29.00
2019-03-21T15:50:11.676Z,29.27
2019-03-21T15:52:39.047Z,30.50
2019-03-21T15:55:06.103Z,29.71
2019-03-21T15:57:33.476Z,29.00
2019-03-21T16:00:00.522Z,29.49
2019-03-21T16:02:27.566Z,30.03
2019-03-21T16:04:58.623Z,30.05
2019-03-21T16:07:27.939Z,29.67
2019-03-21T16:09:55.187Z,30.00
2019-03-21T16:12:22.261Z,30.07
2019-03-21T16:14:49.454Z,30.01
2019-03-21T16:17:16.508Z,30.35
2019-03-21T16:19:43.554Z,31.08
2019-03-21T16:22:10.622Z,30.91
2019-03-21T16:24:37.683Z,31.34
2019-03-21T16:27:04.727Z,31.88
2019-03-21T16:29:32.138Z,31.62
2019-03-21T16:31:59.200Z,31.79
2019-03-21T16:34:26.543Z,32.58
2019-03-21T16:36:53.595Z,33.02
2019-03-21T16:39:20.659Z,33.59
2019-03-21T16:41:48.011Z,33.88
2019-03-21T16:44:15.074Z,34.11
2019-03-21T16:46:42.121Z,34.43
2019-03-21T16:49:09.183Z,34.93
2019-03-21T16:51:39.563Z,35.12
2019-03-21T16:54:16.481Z,34.70
2019-03-21T16:56:35.364Z,34.66
2019-03-21T16:59:02.759Z,34.80
2019-03-21T17:01:30.141Z,34.84
2019-03-21T17:03:57.587Z,34.70
2019-03-21T17:06:24.658Z,34.81
2019-03-21T17:08:51.720Z,34.59
2019-03-21T17:11:19.022Z,34.41
2019-03-21T17:13:46.100Z,35.00
2019-03-21T17:16:13.160Z,34.46
2019-03-21T17:18:40.211Z,34.54
2019-03-21T17:21:09.493Z,34.72
2019-03-21T17:23:36.337Z,34.41
2019-03-21T17:26:03.666Z,34.66
2019-03-21T17:28:30.735Z,34.67
2019-03-21T17:30:57.786Z,34.38
2019-03-21T17:33:24.835Z,34.42
2019-03-21T17:35:51.906Z,34.44
2019-03-21T17:38:18.966Z,34.63
2019-03-21T17:40:46.359Z,34.56
2019-03-21T17:43:13.411Z,34.51
2019-03-21T17:45:40.805Z,34.66
2019-03-21T17:48:08.238Z,34.93
2019-03-21T17:50:35.574Z,34.82
2019-03-21T17:53:02.930Z,34.75
2019-03-21T17:55:31.305Z,34.54
2019-03-21T17:57:58.353Z,34.50
2019-03-21T18:00:25.715Z,34.48
2019-03-21T18:02:52.765Z,34.68
2019-03-21T18:05:19.823Z,34.52
2019-03-21T18:07:47.934Z,34.57
2019-03-21T18:10:16.385Z,34.86
2019-03-21T18:12:43.717Z,35.20
2019-03-21T18:15:11.175Z,35.09
2019-03-21T18:17:39.291Z,35.70
2019-03-21T18:20:06.701Z,35.56
2019-03-21T18:22:33.747Z,35.63
2019-03-21T18:25:01.107Z,35.64
2019-03-21T18:27:28.154Z,35.45
2019-03-21T18:29:55.214Z,35.74
2019-03-21T18:32:22.558Z,36.06
2019-03-21T18:34:49.928Z,35.97
2019-03-21T18:37:16.974Z,36.05
2019-03-21T18:39:44.034Z,36.24
2019-03-21T18:42:11.337Z,36.06
2019-03-21T18:44:38.401Z,36.21
2019-03-21T18:47:05.444Z,36.31
2019-03-21T18:49:32.484Z,36.21
2019-03-21T18:51:59.602Z,36.14
2019-03-21T18:54:27.021Z,36.45
2019-03-21T18:56:54.118Z,36.45
2019-03-21T18:59:21.172Z,36.65
2019-03-21T19:01:57.949Z,36.78
2019-03-21T19:04:17.662Z,37.04
2019-03-21T19:06:44.766Z,36.86
2019-03-21T19:09:11.842Z,36.66
2019-03-21T19:11:39.238Z,36.57
2019-03-21T19:14:06.281Z,36.48
2019-03-21T19:16:33.344Z,36.59
2019-03-21T19:19:00.688Z,37.27
2019-03-21T19:21:27.995Z,36.88
2019-03-21T19:23:56.297Z,37.42
2019-03-21T19:26:23.357Z,37.60
2019-03-21T19:28:50.425Z,37.71
2019-03-21T19:31:17.750Z,37.44
2019-03-21T19:33:45.146Z,37.44
2019-03-21T19:36:12.163Z,37.13
2019-03-21T19:38:39.213Z,37.44
2019-03-21T19:41:06.553Z,37.08
2019-03-21T19:43:33.612Z,37.00
2019-03-21T19:46:01.738Z,37.34
2019-03-21T19:48:28.773Z,37.21
2019-03-21T19:50:56.178Z,37.29
2019-03-21T19:53:23.226Z,37.46
2019-03-21T19:55:50.283Z,37.44
2019-03-21T19:58:17.326Z,37.97
2019-03-21T20:00:44.680Z,38.36
2019-03-21T20:03:11.732Z,38.54
2019-03-21T20:05:39.082Z,38.62
2019-03-21T20:08:09.286Z,38.84
2019-03-21T20:10:37.578Z,38.92
2019-03-21T20:13:04.628Z,38.86
2019-03-21T20:15:31.861Z,38.88
2019-03-21T20:17:59.158Z,37.77
2019-03-21T20:20:26.695Z,37.54
2019-03-21T20:22:54.256Z,36.89
2019-03-21T20:25:23.659Z,37.30
2019-03-21T20:27:51.130Z,37.52
2019-03-21T20:30:18.246Z,38.05
2019-03-21T20:32:45.631Z,39.83
2019-03-21T20:35:12.683Z,40.65
2019-03-21T20:37:39.773Z,42.88
2019-03-21T20:40:06.885Z,43.18
2019-03-21T20:42:34.249Z,43.46
2019-03-21T20:45:01.305Z,43.48
2019-03-21T20:47:29.854Z,43.65
2019-03-21T20:49:56.897Z,44.40
2019-03-21T20:52:23.958Z,44.65
2019-03-21T20:54:51.004Z,46.03
2019-03-21T20:57:18.374Z,46.56
2019-03-21T20:59:45.424Z,47.12
2019-03-21T21:02:13.547Z,46.45
2019-03-21T21:04:40.591Z,46.36
2019-03-21T21:07:09.104Z,46.16
2019-03-21T21:09:36.152Z,46.52
2019-03-21T21:12:03.510Z,46.74
2019-03-21T21:14:30.866Z,46.93
2019-03-21T21:16:58.217Z,46.52
2019-03-21T21:19:25.292Z,46.65
2019-03-21T21:21:52.328Z,46.40
2019-03-21T21:24:19.665Z,46.32
2019-03-21T21:26:47.025Z,46.17
2019-03-21T21:29:14.067Z,46.06
2019-03-21T21:31:41.130Z,45.95
2019-03-21T21:34:08.186Z,46.13
2019-03-21T21:36:35.243Z,46.56
2019-03-21T21:39:02.590Z,46.95
2019-03-21T21:41:31.119Z,47.11
2019-03-21T21:43:58.527Z,47.01
2019-03-21T21:46:25.589Z,46.80
2019-03-21T21:48:52.637Z,46.70
2019-03-21T21:51:20.062Z,46.53
2019-03-21T21:53:47.418Z,46.53
2019-03-21T21:56:17.817Z,46.21
2019-03-21T21:58:43.226Z,45.92
2019-03-21T22:01:10.449Z,45.78
2019-03-21T22:03:37.672Z,45.50
2019-03-21T22:06:04.733Z,45.27
2019-03-21T22:08:31.794Z,45.11
2019-03-21T22:10:58.855Z,44.99
2019-03-21T22:13:25.930Z,44.90
2019-03-21T22:15:52.979Z,44.90
2019-03-21T22:18:20.047Z,44.89
2019-03-21T22:20:47.090Z,44.97
2019-03-21T22:23:14.450Z,44.67
2019-03-21T22:25:41.497Z,44.33
2019-03-21T22:28:10.158Z,44.30
2019-03-21T22:30:38.900Z,44.44
2019-03-21T22:35:47.218Z,44.29
2019-03-21T22:38:19.723Z,44.30
2019-03-21T22:40:49.026Z,44.57
2019-03-21T22:48:33.261Z,45.18
2019-03-21T22:51:03.689Z,44.78
2019-03-21T22:53:31.913Z,45.35
2019-03-21T22:56:00.069Z,45.53
2019-03-21T22:58:31.994Z,45.37
2019-03-21T23:01:16.474Z,45.42
2019-03-21T23:03:43.694Z,46.63
2019-03-21T23:06:10.982Z,46.92
2019-03-21T23:13:54.923Z,48.94
2019-03-21T23:16:21.817Z,49.65
2019-03-21T23:18:49.158Z,49.82
2019-03-21T23:21:18.628Z,50.18
2019-03-21T23:23:45.682Z,49.87
2019-03-21T23:26:12.721Z,50.26
2019-03-21T23:28:39.769Z,50.00
2019-03-21T23:31:06.871Z,49.38
2019-03-21T23:33:34.545Z,48.96
2019-03-21T23:36:01.585Z,49.13
2019-03-21T23:38:28.900Z,48.76
2019-03-21T23:40:56.666Z,49.21
2019-03-21T23:43:24.791Z,50.33
2019-03-21T23:46:04.001Z,50.67
2019-03-21T23:48:31.297Z,50.71
2019-03-21T23:50:58.329Z,50.74
2019-03-21T23:53:25.381Z,51.05
2019-03-21T23:55:52.416Z,51.25
2019-03-21T23:58:19.827Z,51.70
